Time;durP1;ratioP1;P1;durP2;ratioP2;P2;SDS_P1;SDS_P2;PMS_P1;PMS_P2;Temp;Humidity;BMP_temperature;BMP_pressure;BME280_temperature;BME280_humidity;BME280_pressure;Samples;Min_cycle;Max_cycle;Signal;HPM_P1;HPM_P2
2021/08/09 00:01:19;;;;;;;11.50;8.18;;;691.40;1561.60;;;;;;5094008;28;20024;-78
2021/08/09 00:03:44;;;;;;;12.63;8.57;;;691.40;1561.60;;;;;;5093728;28;20123;-79
2021/08/09 00:06:11;;;;;;;12.00;8.25;;;691.30;1587.20;;;;;;5094246;28;20024;-78
2021/08/09 00:08:36;;;;;;;9.90;7.95;;;691.30;1587.20;;;;;;5092762;28;20024;-78
2021/08/09 00:11:02;;;;;;;13.40;8.40;;;691.30;1587.20;;;;;;5092836;28;20023;-79
2021/08/09 00:13:28;;;;;;;19.42;9.20;;;691.30;1587.20;;;;;;5093961;28;20073;-79
2021/08/09 00:15:57;;;;;;;11.73;8.65;;;691.20;1612.80;;;;;;5094006;28;20024;-79
2021/08/09 00:18:25;;;;;;;15.82;9.18;;;691.20;1612.80;;;;;;5092661;28;20074;-78
2021/08/09 00:20:52;;;;;;;14.05;8.70;;;691.20;1612.80;;;;;;5092676;28;20055;-79
2021/08/09 00:23:19;;;;;;;10.93;9.40;;;691.20;1612.80;;;;;;5093893;28;20551;-79
2021/08/09 00:25:45;;;;;;;13.45;9.20;;;666.50;1612.80;;;;;;5092281;28;20062;-79
2021/08/09 00:28:11;;;;;;;12.85;9.35;;;666.40;1612.80;;;;;;5093921;28;20023;-78
2021/08/09 00:30:37;;;;;;;12.55;9.45;;;666.40;1638.40;;;;;;5092801;28;20024;-80
2021/08/09 00:33:03;;;;;;;13.55;9.35;;;666.40;1612.80;;;;;;5092806;28;20024;-79
2021/08/09 00:35:29;;;;;;;12.18;9.00;;;666.30;1638.40;;;;;;5094074;28;20120;-79
2021/08/09 00:37:55;;;;;;;16.35;9.70;;;666.30;1638.40;;;;;;5092700;28;20062;-79
2021/08/09 00:40:21;;;;;;;17.48;8.82;;;666.30;1638.40;;;;;;5093801;28;20543;-79
2021/08/09 00:42:47;;;;;;;13.30;9.13;;;666.30;1638.40;;;;;;5098207;28;20031;-79
2021/08/09 00:45:13;;;;;;;12.27;9.55;;;666.20;1664.00;;;;;;5096654;28;20028;-79
2021/08/09 00:47:39;;;;;;;12.82;9.98;;;666.10;1664.00;;;;;;5097879;28;20031;-79
2021/08/09 00:50:05;;;;;;;17.65;10.15;;;666.10;1689.60;;;;;;5096624;28;20028;-81
2021/08/09 00:52:31;;;;;;;12.25;10.00;;;666.00;1689.60;;;;;;5097815;28;20049;-80
2021/08/09 00:54:57;;;;;;;14.32;9.57;;;666.10;1689.60;;;;;;5096540;28;20476;-81
2021/08/09 00:57:24;;;;;;;10.50;8.82;;;666.10;1689.60;;;;;;5096500;28;20078;-81
2021/08/09 00:59:50;;;;;;;14.30;9.65;;;666.10;1664.00;;;;;;5097756;28;20021;-80
2021/08/09 01:02:16;;;;;;;13.32;9.55;;;666.10;1689.60;;;;;;5096066;28;20107;-81
2021/08/09 01:04:42;;;;;;;12.38;8.70;;;666.10;1664.00;;;;;;5096335;28;20043;-80
2021/08/09 01:07:08;;;;;;;12.70;8.90;;;666.10;1689.60;;;;;;5097473;28;20025;-80
2021/08/09 01:10:01;;;;;;;12.48;8.68;;;666.10;1664.00;;;;;;5097449;28;20452;-80
2021/08/09 01:12:33;;;;;;;14.53;9.13;;;666.10;1664.00;;;;;;5096195;28;20021;-80
2021/08/09 01:15:14;;;;;;;9.98;8.18;;;666.10;1664.00;;;;;;5096289;28;20265;-80
2021/08/09 01:17:43;;;;;;;9.50;7.65;;;666.10;1638.40;;;;;;5096150;28;20020;-82
2021/08/09 01:20:15;;;;;;;8.98;7.65;;;666.00;1638.40;;;;;;5096204;28;20091;-80
2021/08/09 01:23:07;;;;;;;13.88;7.10;;;666.00;1638.40;;;;;;5097274;28;20429;-80
2021/08/09 01:25:42;;;;;;;10.10;7.75;;;665.80;1638.40;;;;;;5096089;28;20032;-80
2021/08/09 01:28:09;;;;;;;9.57;7.15;;;665.80;1638.40;;;;;;5095829;28;20020;-82
2021/08/09 01:30:37;;;;;;;10.85;7.43;;;665.70;1638.40;;;;;;5095968;28;20383;-81
2021/08/09 01:33:05;;;;;;;10.45;7.53;;;665.60;1638.40;;;;;;5097495;28;20074;-81
2021/08/09 01:35:32;;;;;;;10.57;7.47;;;665.60;1638.40;;;;;;5095569;28;20396;-82
2021/08/09 01:37:59;;;;;;;10.00;7.03;;;640.80;1612.80;;;;;;5097124;28;20027;-82
2021/08/09 01:40:26;;;;;;;10.32;7.72;;;640.80;1638.40;;;;;;5097120;28;20072;-82
2021/08/09 01:42:53;;;;;;;9.45;7.32;;;640.70;1638.40;;;;;;5096865;28;20027;-81
2021/08/09 01:45:20;;;;;;;9.27;7.18;;;640.70;1638.40;;;;;;5095549;28;20024;-78
2021/08/09 01:47:47;;;;;;;10.18;7.20;;;640.60;1638.40;;;;;;5095221;28;20020;-77
2021/08/09 01:50:14;;;;;;;10.20;7.68;;;640.60;1638.40;;;;;;5096549;28;20081;-79
2021/08/09 01:52:41;;;;;;;9.48;7.68;;;640.50;1664.00;;;;;;5095978;28;20056;-80
2021/08/09 01:55:09;;;;;;;10.65;7.32;;;640.50;1689.60;;;;;;5096480;28;20024;-80
2021/08/09 01:57:37;;;;;;;10.32;7.82;;;640.50;1689.60;;;;;;5095308;28;20028;-80
2021/08/09 02:00:09;;;;;;;12.07;7.10;;;640.30;1689.60;;;;;;5096377;28;20023;-82
2021/08/09 02:02:35;;;;;;;9.82;6.72;;;640.50;1689.60;;;;;;5096072;28;20089;-79
2021/08/09 02:05:12;;;;;;;9.07;7.05;;;640.30;1715.20;;;;;;5095909;28;20039;-79
2021/08/09 02:07:41;;;;;;;8.93;6.90;;;640.30;1715.20;;;;;;5096621;28;20056;-80
2021/08/09 02:10:09;;;;;;;9.48;6.95;;;640.50;1715.20;;;;;;5094700;28;20138;-81
2021/08/09 02:12:47;;;;;;;9.70;6.70;;;640.50;1715.20;;;;;;5094870;28;20086;-79
2021/08/09 02:15:19;;;;;;;9.32;6.45;;;640.30;1715.20;;;;;;5095183;28;20465;-80
2021/08/09 02:18:01;;;;;;;11.48;6.43;;;640.30;1715.20;;;;;;5094128;28;20499;-81
2021/08/09 02:20:32;;;;;;;11.55;7.03;;;640.30;1740.80;;;;;;5094900;28;20058;-79
2021/08/09 02:23:01;;;;;;;11.90;5.95;;;640.30;1740.80;;;;;;5096070;28;20028;-81
2021/08/09 02:25:32;;;;;;;8.40;5.72;;;640.30;1740.80;;;;;;5094866;28;20031;-81
2021/08/09 02:28:20;;;;;;;11.38;6.10;;;640.20;1766.40;;;;;;5094638;28;20467;-81
2021/08/09 02:30:51;;;;;;;11.75;6.28;;;640.20;1766.40;;;;;;5095779;28;20021;-80
2021/08/09 02:33:20;;;;;;;9.38;5.75;;;640.20;1766.40;;;;;;5094659;28;20024;-80
2021/08/09 02:35:49;;;;;;;9.05;5.95;;;640.20;1766.40;;;;;;5094461;28;20024;-81
2021/08/09 02:38:15;;;;;;;9.30;5.35;;;640.20;1766.40;;;;;;5094561;28;20476;-79
2021/08/09 02:40:42;;;;;;;8.15;5.60;;;640.20;1792.00;;;;;;5094447;28;20020;-80
2021/08/09 02:43:09;;;;;;;11.38;6.43;;;640.10;1766.40;;;;;;5094491;28;20115;-81
2021/08/09 02:45:36;;;;;;;9.90;6.13;;;640.20;1792.00;;;;;;5094417;28;20035;-81
2021/08/09 02:48:02;;;;;;;8.05;5.47;;;640.10;1792.00;;;;;;5095744;28;20069;-82
2021/08/09 02:50:28;;;;;;;7.55;4.70;;;640.10;1792.00;;;;;;5095417;28;20107;-81
2021/08/09 02:52:56;;;;;;;7.40;5.57;;;640.10;1792.00;;;;;;5094280;28;20431;-80
2021/08/09 02:55:22;;;;;;;7.45;4.82;;;640.20;1792.00;;;;;;5094263;28;20028;-80
2021/08/09 02:57:51;;;;;;;10.30;4.80;;;640.10;1817.60;;;;;;5095353;28;20020;-80
2021/08/09 03:00:17;;;;;;;8.77;5.20;;;640.10;1792.00;;;;;;5095387;28;20020;-80
2021/08/09 03:02:45;;;;;;;7.97;4.80;;;640.10;1792.00;;;;;;5094031;28;20101;-80
2021/08/09 03:05:14;;;;;;;6.30;4.75;;;640.20;1792.00;;;;;;5093054;28;20032;-78
2021/08/09 03:07:43;;;;;;;6.90;5.13;;;640.10;1817.60;;;;;;5095045;28;20076;-80
2021/08/09 03:10:10;;;;;;;9.27;5.45;;;640.10;1817.60;;;;;;5094082;28;20024;-80
2021/08/09 03:12:37;;;;;;;7.68;5.25;;;615.30;1817.60;;;;;;5093674;28;20024;-81
2021/08/09 03:15:04;;;;;;;10.52;4.90;;;640.00;1843.20;;;;;;5094993;28;20020;-80
2021/08/09 03:17:30;;;;;;;9.88;4.85;;;615.30;1817.60;;;;;;5093795;28;20024;-81
2021/08/09 03:19:56;;;;;;;7.20;4.97;;;615.20;1817.60;;;;;;5094982;28;20027;-81
2021/08/09 03:22:22;;;;;;;8.68;5.35;;;615.30;1817.60;;;;;;5094825;28;20032;-80
2021/08/09 03:24:48;;;;;;;11.10;5.07;;;615.30;1817.60;;;;;;5094898;28;20039;-81
2021/08/09 03:27:14;;;;;;;8.75;4.78;;;615.30;1843.20;;;;;;5093736;28;20020;-80
2021/08/09 03:29:40;;;;;;;8.55;4.72;;;615.20;1843.20;;;;;;5094994;28;20523;-80
2021/08/09 03:32:06;;;;;;;8.95;4.53;;;615.30;1817.60;;;;;;5094509;28;20023;-82
2021/08/09 03:34:32;;;;;;;10.05;4.63;;;615.30;1817.60;;;;;;5094818;28;20059;-81
2021/08/09 03:36:58;;;;;;;5.95;4.65;;;615.20;1843.20;;;;;;5094555;28;20031;-82
2021/08/09 03:39:24;;;;;;;7.63;4.05;;;615.20;1843.20;;;;;;5093514;28;20436;-81
2021/08/09 03:41:50;;;;;;;7.68;3.50;;;615.20;1843.20;;;;;;5093449;28;20480;-80
2021/08/09 03:44:16;;;;;;;6.10;4.05;;;615.20;1843.20;;;;;;5093379;28;20039;-81
2021/08/09 03:46:42;;;;;;;7.63;3.72;;;615.20;1843.20;;;;;;5093275;28;20024;-82
2021/08/09 03:49:09;;;;;;;8.30;4.22;;;615.10;1843.20;;;;;;5094478;28;20447;-81
2021/08/09 03:51:40;;;;;;;5.65;4.18;;;615.20;1843.20;;;;;;5093344;28;20020;-79
2021/08/09 03:54:07;;;;;;;9.85;3.55;;;615.10;1868.80;;;;;;5094747;28;20031;-79
2021/08/09 03:56:34;;;;;;;6.30;3.67;;;615.10;1868.80;;;;;;5094460;28;20491;-81
2021/08/09 03:59:01;;;;;;;5.15;3.33;;;615.10;1843.20;;;;;;5094421;28;20035;-81
2021/08/09 04:01:26;;;;;;;9.07;3.28;;;615.10;1868.80;;;;;;5093209;28;20024;-81
2021/08/09 04:03:53;;;;;;;7.20;3.63;;;615.10;1843.20;;;;;;5092965;28;20079;-81
2021/08/09 04:06:20;;;;;;;6.03;3.42;;;615.10;1868.80;;;;;;5093073;28;20024;-81
2021/08/09 04:08:48;;;;;;;9.30;3.42;;;615.00;1868.80;;;;;;5093240;28;20028;-80
2021/08/09 04:11:17;;;;;;;10.27;3.67;;;615.10;1868.80;;;;;;5093091;28;20048;-80
2021/08/09 04:13:43;;;;;;;6.97;3.22;;;615.00;1894.40;;;;;;5094162;28;20028;-80
2021/08/09 04:16:09;;;;;;;11.80;3.03;;;615.00;1868.80;;;;;;5093963;28;20079;-82
2021/08/09 04:18:35;;;;;;;7.25;3.25;;;615.00;1868.80;;;;;;5093046;28;20024;-81
2021/08/09 04:21:01;;;;;;;6.20;3.78;;;615.00;1894.40;;;;;;5093055;28;20020;-81
2021/08/09 04:23:28;;;;;;;5.32;3.40;;;615.00;1894.40;;;;;;5093107;28;20362;-81
2021/08/09 04:25:54;;;;;;;6.18;3.05;;;615.00;1894.40;;;;;;5093095;28;20039;-79
2021/08/09 04:28:20;;;;;;;7.38;3.40;;;615.10;1868.80;;;;;;5092945;28;20020;-81
2021/08/09 04:30:46;;;;;;;6.88;3.42;;;615.10;1894.40;;;;;;5092983;28;20384;-80
2021/08/09 04:33:12;;;;;;;8.05;3.47;;;615.00;1894.40;;;;;;5092899;28;20036;-80
2021/08/09 04:35:38;;;;;;;8.15;3.30;;;615.00;1894.40;;;;;;5092966;28;20028;-81
2021/08/09 04:38:04;;;;;;;7.93;3.53;;;615.10;1894.40;;;;;;5094210;28;20027;-80
2021/08/09 04:40:31;;;;;;;10.20;3.10;;;615.10;1868.80;;;;;;5092902;28;20024;-81
2021/08/09 04:42:58;;;;;;;8.60;3.50;;;615.10;1894.40;;;;;;5093889;28;20476;-82
2021/08/09 04:45:27;;;;;;;12.60;3.05;;;615.10;1894.40;;;;;;5092704;28;20028;-81
2021/08/09 04:47:52;;;;;;;8.10;3.55;;;615.10;1894.40;;;;;;5093793;28;20103;-81
2021/08/09 04:50:19;;;;;;;11.00;3.90;;;615.10;1894.40;;;;;;5094191;28;20055;-82
2021/08/09 04:52:44;;;;;;;6.28;3.15;;;615.10;1894.40;;;;;;5092662;28;20020;-80
2021/08/09 04:55:13;;;;;;;12.20;3.42;;;615.10;1894.40;;;;;;5092731;28;20030;-80
2021/08/09 04:57:39;;;;;;;7.40;3.30;;;615.10;1920.00;;;;;;5092813;28;20035;-80
2021/08/09 05:00:06;;;;;;;7.68;3.70;;;615.10;1894.40;;;;;;5093899;28;20491;-81
2021/08/09 05:02:32;;;;;;;6.95;3.33;;;615.00;1945.60;;;;;;5092172;28;20056;-82
2021/08/09 05:05:01;;;;;;;6.07;3.40;;;615.00;1945.60;;;;;;5092452;28;20032;-80
2021/08/09 05:07:27;;;;;;;4.43;2.97;;;615.00;1920.00;;;;;;5092069;28;20070;-82
2021/08/09 05:09:52;;;;;;;5.65;3.10;;;615.10;1920.00;;;;;;5092260;28;20023;-81
2021/08/09 05:12:18;;;;;;;6.13;3.60;;;615.10;1920.00;;;;;;5092218;28;20472;-81
2021/08/09 05:14:44;;;;;;;5.05;3.50;;;615.10;1920.00;;;;;;5093419;28;20112;-80
2021/08/09 05:17:10;;;;;;;6.25;3.40;;;615.10;1945.60;;;;;;5091832;28;20050;-81
2021/08/09 05:19:37;;;;;;;7.32;3.70;;;615.10;1920.00;;;;;;5092016;28;20028;-80
2021/08/09 05:22:03;;;;;;;6.63;3.33;;;615.10;1920.00;;;;;;5091946;28;20085;-80
2021/08/09 05:24:30;;;;;;;9.52;3.92;;;615.20;1920.00;;;;;;5093214;28;20039;-80
2021/08/09 05:26:56;;;;;;;8.18;3.38;;;615.20;1920.00;;;;;;5092741;28;20032;-81
2021/08/09 05:29:22;;;;;;;6.88;3.70;;;615.20;1920.00;;;;;;5097378;28;20469;-81
2021/08/09 05:31:48;;;;;;;7.30;3.40;;;615.20;1920.00;;;;;;5095544;28;20535;-77
2021/08/09 05:34:14;;;;;;;9.90;3.92;;;615.20;1920.00;;;;;;5095324;28;20123;-78
2021/08/09 05:36:43;;;;;;;7.65;3.92;;;615.20;1920.00;;;;;;5095550;28;20115;-82
2021/08/09 05:39:08;;;;;;;8.68;3.95;;;615.30;1920.00;;;;;;5096092;28;20042;-81
2021/08/09 05:41:34;;;;;;;8.35;3.75;;;640.00;1920.00;;;;;;5096363;28;20106;-81
2021/08/09 05:44:00;;;;;;;7.30;4.15;;;640.00;1894.40;;;;;;5095652;28;20060;-82
2021/08/09 05:46:26;;;;;;;7.53;3.60;;;640.00;1920.00;;;;;;5095927;28;20092;-86
2021/08/09 05:48:52;;;;;;;10.15;3.60;;;640.10;1894.40;;;;;;5095787;28;20368;-83
2021/08/09 05:51:18;;;;;;;10.07;3.58;;;640.10;1894.40;;;;;;5096876;28;20056;-82
2021/08/09 05:53:44;;;;;;;7.18;3.60;;;640.10;1894.40;;;;;;5096627;28;20020;-82
2021/08/09 05:56:10;;;;;;;7.50;3.80;;;640.10;1894.40;;;;;;5095598;28;20024;-81
2021/08/09 05:58:37;;;;;;;6.38;3.50;;;640.10;1894.40;;;;;;5095334;28;20073;-78
2021/08/09 06:01:04;;;;;;;8.80;4.10;;;640.20;1894.40;;;;;;5094822;28;20032;-77
2021/08/09 06:03:30;;;;;;;9.68;4.72;;;640.20;1894.40;;;;;;5096094;28;20515;-81
2021/08/09 06:05:56;;;;;;;6.20;3.95;;;640.20;1894.40;;;;;;5095380;28;20032;-81
2021/08/09 06:08:22;;;;;;;6.13;3.50;;;640.30;1868.80;;;;;;5095406;28;20024;-81
2021/08/09 06:10:48;;;;;;;10.57;3.53;;;640.40;1868.80;;;;;;5095238;28;20472;-80
2021/08/09 06:13:14;;;;;;;8.00;3.90;;;640.40;1868.80;;;;;;5095335;28;20073;-81
2021/08/09 06:15:40;;;;;;;10.20;4.30;;;640.40;1843.20;;;;;;5096227;28;20024;-77
2021/08/09 06:18:05;;;;;;;6.88;3.95;;;640.50;1843.20;;;;;;5094821;28;20038;-83
2021/08/09 06:20:31;;;;;;;5.50;3.42;;;640.50;1843.20;;;;;;5096408;28;20024;-80
2021/08/09 06:22:58;;;;;;;9.15;4.05;;;640.60;1843.20;;;;;;5096404;28;20051;-83
2021/08/09 06:25:25;;;;;;;7.32;4.00;;;640.60;1843.20;;;;;;5095809;28;20028;-81
2021/08/09 06:27:51;;;;;;;21.92;3.80;;;640.70;1843.20;;;;;;5094462;28;20072;-80
2021/08/09 06:30:17;;;;;;;6.75;4.07;;;640.80;1817.60;;;;;;5094734;28;20020;-83
2021/08/09 06:32:43;;;;;;;7.70;4.07;;;640.80;1817.60;;;;;;5094572;28;20468;-81
2021/08/09 06:35:09;;;;;;;7.55;3.28;;;640.90;1817.60;;;;;;5095505;28;20107;-79
2021/08/09 06:37:35;;;;;;;10.10;4.22;;;665.60;1817.60;;;;;;5094413;28;20152;-81
2021/08/09 06:40:03;;;;;;;6.97;3.90;;;665.60;1817.60;;;;;;5095492;28;20028;-81
2021/08/09 06:42:29;;;;;;;5.65;3.33;;;665.80;1817.60;;;;;;5094320;28;20020;-83
2021/08/09 06:44:55;;;;;;;16.10;3.42;;;665.80;1817.60;;;;;;5095087;28;20497;-85
2021/08/09 06:47:21;;;;;;;7.88;3.90;;;666.00;1792.00;;;;;;5094527;28;20036;-82
2021/08/09 06:49:48;;;;;;;6.50;3.65;;;666.10;1792.00;;;;;;5094264;28;20051;-85
2021/08/09 06:52:15;;;;;;;5.80;3.53;;;666.10;1766.40;;;;;;5094351;28;20483;-84
2021/08/09 06:54:41;;;;;;;6.22;3.40;;;666.30;1766.40;;;;;;5094306;28;20039;-82
2021/08/09 06:57:07;;;;;;;4.93;3.13;;;666.40;1766.40;;;;;;5094103;28;20020;-81
2021/08/09 06:59:32;;;;;;;6.65;3.28;;;666.40;1740.80;;;;;;5093809;28;20036;-83
2021/08/09 07:01:58;;;;;;;5.60;3.80;;;666.40;1740.80;;;;;;5093702;28;20024;-84
2021/08/09 07:04:24;;;;;;;13.25;4.38;;;666.40;1740.80;;;;;;5093897;28;20048;-81
2021/08/09 07:06:51;;;;;;;5.53;3.90;;;691.20;1740.80;;;;;;5094058;28;20052;-83
2021/08/09 07:09:16;;;;;;;6.00;3.58;;;691.20;1715.20;;;;;;5093842;28;20032;-85
2021/08/09 07:11:42;;;;;;;7.70;3.83;;;691.20;1715.20;;;;;;5093448;28;20028;-76
2021/08/09 07:14:08;;;;;;;6.45;3.92;;;691.30;1715.20;;;;;;5093333;28;20020;-76
2021/08/09 07:16:34;;;;;;;5.00;2.90;;;691.30;1715.20;;;;;;5093289;28;20140;-78
2021/08/09 07:19:00;;;;;;;14.70;4.38;;;691.40;1715.20;;;;;;5094504;28;20027;-77
2021/08/09 07:21:26;;;;;;;17.33;3.92;;;691.40;1715.20;;;;;;5093105;28;20024;-77
2021/08/09 07:23:52;;;;;;;18.33;4.65;;;691.50;1715.20;;;;;;5094321;28;20170;-77
2021/08/09 07:26:18;;;;;;;8.45;3.95;;;691.60;1715.20;;;;;;5094883;28;20069;-83
2021/08/09 07:28:44;;;;;;;6.03;3.60;;;691.50;1715.20;;;;;;5094936;28;20119;-81
2021/08/09 07:31:09;;;;;;;10.93;3.95;;;691.40;1715.20;;;;;;5093769;28;20543;-84
2021/08/09 07:33:36;;;;;;;9.73;3.85;;;691.50;1715.20;;;;;;5093683;28;20054;-84
2021/08/09 07:36:04;;;;;;;16.73;3.95;;;691.50;1715.20;;;;;;5093173;28;20032;-87
2021/08/09 07:38:31;;;;;;;16.08;4.10;;;691.50;1715.20;;;;;;5092973;28;20070;-85
2021/08/09 07:40:57;;;;;;;7.43;3.63;;;691.50;1715.20;;;;;;5092939;28;20020;-84
2021/08/09 07:43:23;;;;;;;6.88;4.45;;;691.60;1715.20;;;;;;5093322;28;20036;-83
2021/08/09 07:45:48;;;;;;;10.80;3.78;;;691.50;1715.20;;;;;;5093367;28;20028;-84
2021/08/09 07:48:14;;;;;;;8.43;3.53;;;691.70;1715.20;;;;;;5093043;28;20023;-81
2021/08/09 07:50:41;;;;;;;10.48;3.97;;;691.50;1715.20;;;;;;5092661;28;20024;-83
2021/08/09 07:53:08;;;;;;;13.20;4.68;;;691.60;1715.20;;;;;;5092882;28;20058;-80
2021/08/09 07:55:34;;;;;;;9.77;4.03;;;691.60;1715.20;;;;;;5092842;28;20031;-80
2021/08/09 07:58:00;;;;;;;21.70;4.60;;;691.90;1689.60;;;;;;5094525;28;20017;-86
2021/08/09 08:00:26;;;;;;;13.23;4.30;;;691.70;1689.60;;;;;;5093023;28;20031;-84
2021/08/09 08:02:52;;;;;;;13.65;4.10;;;691.80;1689.60;;;;;;5093999;28;20048;-86
2021/08/09 08:05:19;;;;;;;10.18;3.97;;;691.90;1689.60;;;;;;5092883;28;20043;-81
2021/08/09 08:07:45;;;;;;;12.73;4.13;;;691.90;1664.00;;;;;;5093962;28;20476;-84
2021/08/09 08:10:11;;;;;;;11.25;3.42;;;691.90;1664.00;;;;;;5093392;28;20028;-79
2021/08/09 08:12:37;;;;;;;11.00;4.20;;;691.90;1664.00;;;;;;5093791;28;20027;-80
2021/08/09 08:15:05;;;;;;;10.88;4.38;;;691.90;1664.00;;;;;;5092731;28;20055;-85
2021/08/09 08:17:32;;;;;;;9.77;3.45;;;691.90;1664.00;;;;;;5092750;28;20028;-84
2021/08/09 08:19:58;;;;;;;10.55;4.22;;;691.90;1664.00;;;;;;5092527;28;20020;-83
2021/08/09 08:22:24;;;;;;;10.57;3.35;;;691.90;1664.00;;;;;;5092671;28;20498;-83
2021/08/09 08:24:50;;;;;;;7.35;4.10;;;692.00;1664.00;;;;;;5093176;28;20472;-81
2021/08/09 08:27:16;;;;;;;8.95;3.70;;;692.00;1638.40;;;;;;5092588;28;20040;-85
2021/08/09 08:29:42;;;;;;;11.80;3.95;;;692.00;1638.40;;;;;;5093532;28;20586;-82
2021/08/09 08:32:08;;;;;;;8.65;4.05;;;692.00;1638.40;;;;;;5086743;28;20020;-84
2021/08/09 08:34:34;;;;;;;9.48;3.80;;;692.00;1638.40;;;;;;5092493;28;20024;-84
2021/08/09 08:37:00;;;;;;;10.07;3.72;;;692.00;1638.40;;;;;;5072458;28;20055;-81
2021/08/09 08:39:27;;;;;;;7.10;3.88;;;692.00;1638.40;;;;;;5088919;28;20052;-81
2021/08/09 08:41:55;;;;;;;9.63;4.50;;;692.00;1664.00;;;;;;5088948;28;20507;-84
2021/08/09 08:44:21;;;;;;;10.45;4.00;;;692.00;1638.40;;;;;;5092096;28;20032;-83
2021/08/09 08:46:48;;;;;;;4.72;3.38;;;692.00;1664.00;;;;;;5092620;28;20213;-85
2021/08/09 08:49:15;;;;;;;7.60;3.53;;;692.00;1638.40;;;;;;5092431;28;20111;-83
2021/08/09 08:51:44;;;;;;;9.40;4.65;;;692.00;1638.40;;;;;;5091665;28;20023;-84
2021/08/09 08:54:12;;;;;;;9.38;3.72;;;692.10;1638.40;;;;;;5091915;28;20023;-83
2021/08/09 08:56:39;;;;;;;10.40;4.00;;;692.10;1664.00;;;;;;5092314;28;20107;-83
2021/08/09 08:59:11;;;;;;;9.00;4.10;;;692.10;1664.00;;;;;;5091368;28;20028;-81
2021/08/09 09:01:39;;;;;;;9.57;3.70;;;692.10;1638.40;;;;;;5091989;28;20024;-84
2021/08/09 09:04:27;;;;;;;8.25;4.13;;;692.10;1638.40;;;;;;5096446;28;20058;-83
2021/08/09 09:07:02;;;;;;;8.45;3.78;;;716.80;1664.00;;;;;;5096454;28;20016;-82
2021/08/09 09:09:30;;;;;;;6.60;4.05;;;716.80;1664.00;;;;;;5095081;28;20416;-77
2021/08/09 09:11:56;;;;;;;8.00;3.60;;;692.10;1638.40;;;;;;5095047;28;20059;-81
2021/08/09 09:14:32;;;;;;;7.25;4.22;;;716.80;1664.00;;;;;;5096241;28;20480;-80
2021/08/09 09:16:59;;;;;;;9.10;4.22;;;692.10;1638.40;;;;;;5094664;28;20040;-81
2021/08/09 09:19:32;;;;;;;8.90;3.72;;;692.10;1638.40;;;;;;5094755;28;20032;-83
2021/08/09 09:21:58;;;;;;;6.00;3.58;;;716.80;1689.60;;;;;;5096005;28;20069;-78
2021/08/09 09:24:25;;;;;;;7.13;3.63;;;716.80;1664.00;;;;;;5094992;28;20036;-81
2021/08/09 09:27:03;;;;;;;5.90;3.88;;;716.80;1664.00;;;;;;5095913;28;20016;-83
2021/08/09 09:29:40;;;;;;;14.35;3.72;;;716.80;1664.00;;;;;;5095915;28;20047;-83
2021/08/09 09:32:18;;;;;;;9.23;4.05;;;716.80;1664.00;;;;;;5094905;28;20062;-84
2021/08/09 09:34:49;;;;;;;6.70;4.38;;;716.90;1664.00;;;;;;5095760;28;20016;-81
2021/08/09 09:37:38;;;;;;;7.60;3.72;;;716.80;1664.00;;;;;;5096852;28;20073;-79
2021/08/09 09:40:12;;;;;;;7.22;3.88;;;716.80;1664.00;;;;;;5095529;28;20342;-80
2021/08/09 09:42:41;;;;;;;6.95;3.80;;;716.80;1664.00;;;;;;5094861;28;20458;-78
2021/08/09 09:45:20;;;;;;;7.55;3.45;;;716.80;1664.00;;;;;;5095065;28;20438;-81
2021/08/09 09:48:09;;;;;;;6.85;3.90;;;716.80;1664.00;;;;;;5095142;28;20101;-77
2021/08/09 09:50:43;;;;;;;7.47;3.70;;;716.90;1664.00;;;;;;5095268;28;20024;-79
2021/08/09 09:53:22;;;;;;;6.55;3.70;;;716.90;1664.00;;;;;;5088072;28;20024;-84
2021/08/09 09:55:51;;;;;;;6.47;3.65;;;716.90;1664.00;;;;;;5094109;28;20099;-76
2021/08/09 09:58:18;;;;;;;6.68;4.10;;;716.90;1664.00;;;;;;5096116;28;20020;-78
2021/08/09 10:00:44;;;;;;;6.47;3.80;;;716.90;1638.40;;;;;;5094990;28;20094;-80
2021/08/09 10:03:11;;;;;;;10.70;3.67;;;716.90;1638.40;;;;;;5096023;28;20044;-79
2021/08/09 10:05:39;;;;;;;8.48;3.80;;;716.90;1638.40;;;;;;5095888;28;20028;-80
2021/08/09 10:08:16;;;;;;;9.40;4.13;;;717.00;1638.40;;;;;;5096291;28;20058;-83
2021/08/09 10:10:47;;;;;;;4.93;3.60;;;717.00;1638.40;;;;;;5096119;28;20178;-79
2021/08/09 10:13:16;;;;;;;5.88;4.10;;;717.10;1638.40;;;;;;5094698;28;20024;-85
2021/08/09 10:15:42;;;;;;;7.75;3.72;;;717.00;1638.40;;;;;;5094565;28;20584;-80
2021/08/09 10:18:09;;;;;;;10.25;4.25;;;717.00;1638.40;;;;;;5094859;28;20491;-81
2021/08/09 10:20:35;;;;;;;6.82;3.70;;;717.00;1638.40;;;;;;5095718;28;20077;-81
2021/08/09 10:23:04;;;;;;;8.88;4.03;;;717.00;1638.40;;;;;;5094211;28;20115;-83
2021/08/09 10:25:50;;;;;;;6.55;3.70;;;717.10;1638.40;;;;;;5094702;28;20161;-85
2021/08/09 10:28:17;;;;;;;23.58;4.32;;;717.20;1638.40;;;;;;5095026;28;20028;-76
2021/08/09 10:30:43;;;;;;;11.18;4.03;;;717.20;1638.40;;;;;;5094537;28;20365;-80
2021/08/09 10:33:10;;;;;;;7.28;3.92;;;717.20;1638.40;;;;;;5095931;28;20023;-78
2021/08/09 10:35:40;;;;;;;9.50;3.38;;;717.20;1638.40;;;;;;5093968;28;20024;-78
2021/08/09 10:38:20;;;;;;;10.15;3.75;;;717.30;1638.40;;;;;;5095434;28;20028;-77
2021/08/09 10:41:01;;;;;;;6.28;3.17;;;717.30;1638.40;;;;;;5094257;28;20028;-77
2021/08/09 10:43:27;;;;;;;8.35;3.60;;;717.30;1638.40;;;;;;5094867;28;20102;-84
2021/08/09 10:45:53;;;;;;;9.30;3.13;;;717.20;1638.40;;;;;;5094242;28;20089;-77
2021/08/09 10:48:49;;;;;;;7.95;3.25;;;717.20;1664.00;;;;;;5093762;28;20024;-77
2021/08/09 10:51:15;;;;;;;7.25;3.40;;;717.30;1638.40;;;;;;5016554;28;20037;-80
2021/08/09 10:53:43;;;;;;;10.38;3.17;;;717.30;1638.40;;;;;;5033114;28;20029;-78
2021/08/09 10:56:29;;;;;;;12.77;3.47;;;717.20;1638.40;;;;;;5032786;28;20044;-80
2021/08/09 10:58:56;;;;;;;9.63;3.53;;;717.40;1612.80;;;;;;5032134;28;20061;-78
2021/08/09 11:01:23;;;;;;;8.95;3.53;;;717.40;1638.40;;;;;;5033213;28;20041;-85
2021/08/09 11:04:06;;;;;;;12.27;3.00;;;717.50;1612.80;;;;;;5016389;28;20132;-81
2021/08/09 11:06:54;;;;;;;9.50;3.40;;;717.50;1612.80;;;;;;5016567;28;20215;-83
2021/08/09 11:09:33;;;;;;;9.90;3.58;;;717.50;1612.80;;;;;;5016635;28;20026;-81
2021/08/09 11:12:23;;;;;;;10.82;3.38;;;717.40;1612.80;;;;;;5032772;28;20127;-83
2021/08/09 11:15:10;;;;;;;6.18;3.13;;;717.30;1638.40;;;;;;5016199;28;20037;-81
2021/08/09 11:17:39;;;;;;;11.65;7.47;;;717.30;1612.80;;;;;;5033547;28;20049;-81
2021/08/09 11:20:15;;;;;;;5.65;3.40;;;717.50;1612.80;;;;;;5033246;28;20115;-82
2021/08/09 11:22:43;;;;;;;21.55;4.72;;;717.50;1587.20;;;;;;5033112;28;20104;-83
2021/08/09 11:25:31;;;;;;;12.73;4.50;;;717.50;1587.20;;;;;;5015562;28;20034;-79
2021/08/09 11:28:07;;;;;;;9.60;4.65;;;717.50;1587.20;;;;;;5072131;28;20039;-78
2021/08/09 11:30:34;;;;;;;8.02;4.00;;;717.60;1587.20;;;;;;5094661;28;20051;-80
2021/08/09 11:33:00;;;;;;;11.68;4.13;;;717.60;1587.20;;;;;;5094673;28;20103;-79
2021/08/09 11:35:26;;;;;;;9.65;4.53;;;717.60;1587.20;;;;;;5093979;28;20503;-77
2021/08/09 11:37:53;;;;;;;9.50;4.55;;;717.60;1587.20;;;;;;5092978;28;20373;-79
2021/08/09 11:40:46;;;;;;;5.97;3.90;;;717.60;1587.20;;;;;;5093132;28;20119;-81
2021/08/09 11:43:20;;;;;;;;;;;717.60;1587.20;;;;;;5091730;28;20040;-81
2021/08/09 11:45:46;;;;;;;;;;;717.60;1587.20;;;;;;5093215;28;19927;-77
2021/08/09 11:48:13;;;;;;;6.88;3.65;;;717.70;1587.20;;;;;;5077386;28;19908;-76
2021/08/09 11:50:41;;;;;;;6.63;3.33;;;717.60;1587.20;;;;;;5073846;28;20032;-77
2021/08/09 11:53:08;;;;;;;15.68;3.20;;;717.60;1587.20;;;;;;5080114;28;20047;-79
2021/08/09 11:55:35;;;;;;;20.15;4.05;;;717.70;1561.60;;;;;;5073116;28;20021;-77
2021/08/09 11:58:02;;;;;;;13.10;2.90;;;717.70;1561.60;;;;;;5093817;28;20024;-79
2021/08/09 12:00:41;;;;;;;14.70;3.20;;;742.40;1587.20;;;;;;5092980;28;20027;-79
2021/08/09 12:03:12;;;;;;;7.97;3.20;;;742.40;1587.20;;;;;;5092686;28;20518;-80
2021/08/09 12:05:38;;;;;;;9.13;3.50;;;742.40;1612.80;;;;;;5092415;28;20043;-80
2021/08/09 12:08:05;;;;;;;17.20;3.42;;;742.40;1587.20;;;;;;5092845;28;20472;-83
2021/08/09 12:10:36;;;;;;;6.90;2.55;;;742.50;1587.20;;;;;;5084487;28;20031;-81
2021/08/09 12:13:04;;;;;;;8.40;3.15;;;742.50;1561.60;;;;;;5093882;28;20099;-82
2021/08/09 12:15:30;;;;;;;8.20;3.40;;;742.50;1587.20;;;;;;5092347;28;20020;-78
2021/08/09 12:18:11;;;;;;;11.55;3.17;;;742.50;1587.20;;;;;;5093611;28;20024;-83
2021/08/09 12:20:37;;;;;;;8.18;2.90;;;742.50;1587.20;;;;;;5094218;28;20024;-80